createdAt,value
2017-08-22T00:46:44.229Z,11.70
2017-08-22T00:49:19.033Z,11.70
2017-08-22T01:07:09.804Z,11.70
2017-08-22T01:09:39.764Z,11.70
2017-08-22T01:12:23.959Z,11.70
2017-08-22T01:17:41.134Z,11.70
2017-08-22T01:23:18.934Z,11.70
2017-08-22T01:38:41.632Z,11.40
2017-08-22T01:44:08.578Z,11.40
2017-08-22T01:47:01.862Z,11.30
2017-08-22T05:12:53.744Z,11.20
2017-08-22T05:25:34.098Z,11.50
2017-08-22T05:37:47.635Z,11.90
2017-08-22T05:40:17.319Z,11.90
2017-08-22T05:42:46.445Z,12.00
2017-08-22T05:45:15.508Z,12.10
2017-08-22T05:47:44.472Z,12.20
2017-08-22T05:50:13.439Z,12.30
2017-08-22T05:52:42.441Z,12.40
2017-08-22T05:55:11.402Z,12.50
2017-08-22T05:57:43.070Z,12.70
2017-08-22T06:00:12.124Z,12.80
2017-08-22T06:02:45.583Z,13.10
2017-08-22T06:05:14.637Z,13.10
2017-08-22T06:07:43.717Z,13.30
2017-08-22T06:10:12.751Z,13.40
2017-08-22T06:12:41.735Z,13.60
2017-08-22T06:15:10.767Z,13.60
2017-08-22T06:17:39.747Z,13.90
2017-08-22T06:20:08.760Z,13.90
2017-08-22T06:22:37.748Z,14.10
2017-08-22T06:25:06.764Z,14.30
2017-08-22T06:27:35.723Z,14.50
2017-08-22T06:30:04.696Z,14.70
2017-08-22T06:32:33.661Z,14.90
2017-08-22T06:35:02.624Z,15.00
2017-08-22T06:37:31.591Z,15.20
2017-08-22T06:40:00.547Z,15.40
2017-08-22T06:42:29.507Z,15.60
2017-08-22T06:44:58.467Z,15.80
2017-08-22T06:47:27.442Z,15.90
2017-08-22T06:49:56.435Z,16.10
2017-08-22T06:52:25.420Z,16.30
2017-08-22T06:54:54.367Z,16.50
2017-08-22T06:57:23.319Z,16.80
2017-08-22T06:59:52.316Z,17.00
2017-08-22T07:02:21.497Z,17.20
2017-08-22T07:04:50.507Z,17.40
2017-08-22T07:07:19.467Z,17.70
2017-08-22T07:09:48.435Z,18.00
2017-08-22T07:12:17.406Z,18.20
2017-08-22T07:14:46.396Z,18.40
2017-08-22T07:17:15.355Z,18.60
2017-08-22T07:19:44.322Z,18.80
2017-08-22T07:22:13.292Z,19.10
2017-08-22T07:24:42.280Z,19.20
2017-08-22T07:27:11.259Z,19.40
2017-08-22T07:29:40.219Z,19.60
2017-08-22T07:32:09.177Z,19.90
2017-08-22T07:34:38.132Z,20.00
2017-08-22T07:37:07.162Z,20.10
2017-08-22T07:39:46.388Z,20.30
2017-08-22T07:42:16.472Z,20.40
2017-08-22T07:44:45.725Z,20.60
2017-08-22T07:47:16.363Z,20.80
2017-08-22T07:49:45.444Z,21.00
2017-08-22T07:52:14.412Z,21.20
2017-08-22T07:54:43.379Z,21.50
2017-08-22T07:57:13.488Z,21.70
2017-08-22T07:59:42.724Z,21.90
2017-08-22T08:02:13.307Z,22.10
2017-08-22T08:04:43.067Z,22.20
2017-08-22T08:07:12.024Z,22.50
2017-08-22T08:09:42.943Z,22.80
2017-08-22T08:12:11.895Z,23.20
2017-08-22T08:14:40.868Z,23.50
2017-08-22T08:17:09.819Z,23.80
2017-08-22T08:19:38.769Z,24.10
2017-08-22T08:22:07.722Z,24.40
2017-08-22T08:24:36.676Z,24.60
2017-08-22T08:27:05.663Z,25.00
2017-08-22T08:29:34.623Z,25.20
2017-08-22T08:32:03.617Z,25.40
2017-08-22T08:34:32.571Z,25.60
2017-08-22T08:37:01.532Z,25.90
2017-08-22T08:39:31.448Z,26.10
2017-08-22T08:42:00.406Z,26.20
2017-08-22T08:44:29.368Z,26.30
2017-08-22T08:46:58.324Z,26.50
2017-08-22T08:49:27.287Z,26.50
2017-08-22T08:51:56.230Z,26.40
2017-08-22T08:54:25.212Z,26.80
2017-08-22T08:56:54.164Z,27.10
2017-08-22T08:59:23.118Z,27.50
2017-08-22T09:01:52.084Z,27.80
2017-08-22T09:04:21.044Z,28.10
2017-08-22T09:06:49.999Z,28.20
2017-08-22T09:09:18.956Z,28.30
2017-08-22T09:11:48.102Z,28.30
2017-08-22T09:14:17.970Z,28.50
2017-08-22T09:16:47.268Z,28.80
2017-08-22T09:19:16.225Z,29.10
2017-08-22T09:21:45.186Z,29.40
2017-08-22T09:24:15.028Z,29.60
2017-08-22T09:26:44.648Z,29.80
2017-08-22T09:29:13.607Z,29.90
2017-08-22T09:31:42.570Z,30.10
2017-08-22T09:34:11.553Z,30.20
2017-08-22T09:36:40.575Z,30.50
2017-08-22T09:39:09.540Z,30.70
2017-08-22T09:41:38.507Z,30.80
2017-08-22T09:44:07.500Z,30.80
2017-08-22T09:46:37.344Z,30.80
2017-08-22T09:49:06.695Z,31.10
2017-08-22T09:51:35.644Z,31.40
2017-08-22T09:54:04.615Z,31.70
2017-08-22T09:56:36.509Z,32.00
2017-08-22T09:59:05.456Z,32.40
2017-08-22T10:01:34.462Z,32.80
2017-08-22T10:04:03.445Z,33.10
2017-08-22T10:06:32.449Z,32.90
2017-08-22T10:09:07.418Z,33.10
2017-08-22T10:11:36.413Z,32.20
2017-08-22T10:14:05.433Z,31.50
2017-08-22T10:16:34.373Z,31.10
2017-08-22T10:19:06.457Z,30.70
2017-08-22T10:21:35.455Z,31.60
2017-08-22T10:24:05.209Z,32.80
2017-08-22T10:26:37.379Z,33.70
2017-08-22T10:29:06.412Z,34.10
2017-08-22T10:31:35.388Z,34.30
2017-08-22T10:34:04.389Z,34.80
2017-08-22T10:36:33.388Z,35.40
2017-08-22T10:39:02.360Z,35.40
2017-08-22T10:41:31.352Z,34.50
2017-08-22T10:44:00.313Z,33.10
2017-08-22T10:46:29.271Z,31.90
2017-08-22T10:48:58.270Z,31.90
2017-08-22T10:51:27.258Z,31.40
2017-08-22T10:53:56.218Z,31.00
2017-08-22T10:56:25.166Z,30.60
2017-08-22T10:58:54.140Z,32.10
2017-08-22T11:01:23.099Z,33.30
2017-08-22T11:03:52.084Z,34.50
2017-08-22T11:06:22.994Z,35.40
2017-08-22T11:08:51.989Z,35.90
2017-08-22T11:11:20.919Z,36.30
2017-08-22T11:13:49.883Z,36.40
2017-08-22T11:16:18.844Z,37.00
2017-08-22T11:18:47.804Z,37.60
2017-08-22T11:21:16.759Z,37.90
2017-08-22T11:23:45.721Z,37.90
2017-08-22T11:26:14.714Z,38.10
2017-08-22T11:28:43.675Z,38.40
2017-08-22T11:31:12.635Z,38.50
2017-08-22T11:33:41.603Z,38.60
2017-08-22T11:36:13.877Z,38.50
2017-08-22T11:38:42.835Z,37.10
2017-08-22T11:41:11.784Z,36.20
2017-08-22T11:43:40.748Z,35.70
2017-08-22T11:46:10.354Z,35.90
2017-08-22T11:48:39.339Z,36.50
2017-08-22T11:51:08.295Z,36.90
2017-08-22T11:53:37.285Z,37.50
2017-08-22T11:56:06.239Z,37.70
2017-08-22T11:58:35.203Z,38.10
2017-08-22T12:01:04.188Z,38.40
2017-08-22T12:03:35.051Z,37.60
2017-08-22T12:06:04.023Z,36.60
2017-08-22T12:08:32.967Z,37.40
2017-08-22T12:11:01.981Z,37.70
2017-08-22T12:13:30.942Z,38.20
2017-08-22T12:15:59.936Z,38.90
2017-08-22T12:18:28.887Z,39.50
2017-08-22T12:20:57.873Z,39.70
2017-08-22T12:23:26.832Z,40.40
2017-08-22T12:25:55.804Z,41.00
2017-08-22T12:28:24.767Z,39.90
2017-08-22T12:31:01.515Z,38.20
2017-08-22T12:33:30.467Z,37.30
2017-08-22T12:35:59.426Z,37.10
2017-08-22T12:38:28.393Z,36.10
2017-08-22T12:40:57.342Z,35.20
2017-08-22T12:43:26.318Z,36.40
2017-08-22T12:45:55.285Z,36.60
2017-08-22T12:48:24.260Z,35.70
2017-08-22T12:50:53.235Z,35.20
2017-08-22T12:53:22.188Z,35.20
2017-08-22T12:55:51.148Z,36.20
2017-08-22T12:58:20.100Z,37.70
2017-08-22T13:00:49.059Z,38.50
2017-08-22T13:03:18.040Z,39.60
2017-08-22T13:05:46.996Z,40.60
2017-08-22T13:08:15.970Z,41.40
2017-08-22T13:10:44.923Z,41.50
2017-08-22T13:13:13.883Z,41.60
2017-08-22T13:15:42.875Z,41.40
2017-08-22T13:18:11.839Z,41.70
2017-08-22T13:20:51.812Z,42.20
2017-08-22T13:23:20.779Z,42.80
2017-08-22T13:25:49.736Z,43.10
2017-08-22T13:28:18.696Z,43.60
2017-08-22T13:30:47.656Z,43.90
2017-08-22T13:33:16.611Z,44.30
2017-08-22T13:35:45.572Z,44.10
2017-08-22T13:38:14.528Z,44.30
2017-08-22T13:40:43.515Z,43.90
2017-08-22T13:43:12.472Z,43.50
2017-08-22T13:45:41.439Z,43.40
2017-08-22T13:48:10.535Z,43.30
2017-08-22T13:50:39.488Z,43.50
2017-08-22T13:53:08.480Z,41.80
2017-08-22T13:55:37.431Z,39.50
2017-08-22T13:58:07.357Z,37.50
2017-08-22T14:00:36.315Z,36.10
2017-08-22T14:03:05.280Z,36.20
2017-08-22T14:05:34.226Z,38.10
2017-08-22T14:08:03.204Z,39.70
2017-08-22T14:10:32.157Z,40.60
2017-08-22T14:13:03.063Z,41.40
2017-08-22T14:15:32.020Z,42.50
2017-08-22T14:18:00.980Z,43.10
2017-08-22T14:20:29.953Z,43.20
2017-08-22T14:22:58.908Z,43.20
2017-08-22T14:25:27.867Z,43.40
2017-08-22T14:27:56.836Z,43.20
2017-08-22T14:30:25.800Z,43.10
2017-08-22T14:32:54.771Z,43.10
2017-08-22T14:35:23.736Z,42.60
2017-08-22T14:37:56.243Z,42.20
2017-08-22T14:40:25.244Z,42.00
2017-08-22T14:42:54.195Z,42.00
2017-08-22T14:45:23.147Z,42.20
2017-08-22T14:47:52.452Z,42.10
2017-08-22T14:50:24.581Z,42.10
2017-08-22T14:52:53.551Z,41.70
2017-08-22T14:55:22.517Z,41.60
2017-08-22T14:57:51.475Z,41.50
2017-08-22T15:00:20.435Z,41.10
2017-08-22T15:02:49.393Z,41.20
2017-08-22T15:05:18.349Z,39.80
2017-08-22T15:07:47.299Z,39.70
2017-08-22T15:10:20.008Z,38.20
2017-08-22T15:12:48.962Z,37.30
2017-08-22T15:15:17.923Z,35.90
2017-08-22T15:17:46.878Z,34.60
2017-08-22T15:20:15.836Z,33.50
2017-08-22T15:22:44.792Z,32.90
2017-08-22T15:25:13.765Z,32.20
2017-08-22T15:27:42.720Z,31.70
2017-08-22T15:30:11.678Z,31.00
2017-08-22T15:32:40.635Z,30.90
2017-08-22T15:35:09.595Z,31.10
2017-08-22T15:37:40.483Z,31.70
2017-08-22T15:40:09.445Z,32.90
2017-08-22T15:42:38.403Z,33.90
2017-08-22T15:45:07.359Z,34.60
2017-08-22T15:47:36.320Z,35.10
2017-08-22T15:50:05.273Z,35.20
2017-08-22T15:52:34.243Z,35.10
2017-08-22T15:55:03.197Z,34.80
2017-08-22T15:57:32.167Z,34.70
2017-08-22T16:00:01.133Z,34.60
2017-08-22T16:02:30.075Z,34.40
2017-08-22T16:04:59.043Z,34.50
2017-08-22T16:07:27.995Z,34.80
2017-08-22T16:09:57.869Z,35.40
2017-08-22T16:12:27.080Z,35.90
2017-08-22T16:14:56.032Z,36.00
2017-08-22T16:17:24.995Z,35.80
2017-08-22T16:19:54.001Z,35.70
2017-08-22T16:22:22.960Z,35.40
2017-08-22T16:24:51.919Z,35.20
2017-08-22T16:27:20.879Z,35.40
2017-08-22T16:29:49.841Z,35.60
2017-08-22T16:32:19.735Z,35.80
2017-08-22T16:34:48.692Z,35.90
2017-08-22T16:37:17.647Z,35.90
2017-08-22T16:39:46.630Z,35.80
2017-08-22T16:42:16.547Z,35.70
2017-08-22T16:44:45.508Z,35.50
2017-08-22T16:47:14.478Z,35.20
2017-08-22T16:49:43.444Z,34.80
2017-08-22T16:52:12.409Z,34.50
2017-08-22T16:54:41.376Z,34.30
2017-08-22T16:57:10.323Z,34.00
2017-08-22T16:59:39.298Z,33.70
2017-08-22T17:02:08.490Z,33.50
2017-08-22T17:04:37.539Z,33.20
2017-08-22T17:07:06.510Z,32.80
2017-08-22T17:09:35.471Z,32.50
2017-08-22T17:12:04.525Z,32.10
2017-08-22T17:14:33.493Z,31.50
2017-08-22T17:17:02.463Z,31.10
2017-08-22T17:19:31.429Z,30.90
2017-08-22T17:22:00.403Z,30.60
2017-08-22T17:24:29.356Z,30.20
2017-08-22T17:26:58.323Z,29.70
2017-08-22T17:29:27.284Z,29.20
2017-08-22T17:31:56.240Z,28.50
2017-08-22T17:34:25.197Z,27.70
2017-08-22T17:36:55.070Z,26.80
2017-08-22T17:39:24.031Z,26.10
2017-08-22T17:41:52.984Z,25.40
2017-08-22T17:44:21.948Z,24.80
2017-08-22T17:46:52.888Z,24.50
2017-08-22T17:49:21.859Z,24.20
2017-08-22T17:51:51.795Z,23.90
2017-08-22T17:54:20.752Z,23.60
2017-08-22T17:56:49.707Z,23.30
2017-08-22T17:59:18.663Z,23.00
2017-08-22T18:01:47.619Z,22.80
2017-08-22T18:04:17.469Z,22.50
2017-08-22T18:06:46.446Z,22.40
2017-08-22T18:09:15.396Z,21.90
2017-08-22T18:11:44.382Z,21.90
2017-08-22T18:14:13.338Z,21.70
2017-08-22T18:16:42.280Z,21.40
2017-08-22T18:19:11.305Z,21.30
2017-08-22T18:21:40.235Z,21.10
2017-08-22T18:24:09.192Z,21.00
2017-08-22T18:26:38.148Z,20.80
2017-08-22T18:29:07.103Z,20.70
2017-08-22T18:31:36.060Z,20.50
2017-08-22T18:34:05.031Z,20.30
2017-08-22T18:36:34.024Z,20.30
2017-08-22T18:39:02.979Z,20.00
2017-08-22T18:41:36.571Z,20.00
2017-08-22T18:44:07.524Z,19.80
2017-08-22T18:46:39.378Z,19.60
2017-08-22T18:49:08.547Z,19.60
2017-08-22T18:51:37.603Z,19.50
2017-08-22T18:54:06.525Z,19.40
2017-08-22T18:56:39.050Z,19.20
2017-08-22T18:59:08.003Z,19.10
2017-08-22T19:01:36.995Z,19.00
2017-08-22T19:04:05.944Z,18.90
2017-08-22T19:06:40.363Z,19.00
2017-08-22T19:09:09.334Z,18.90
2017-08-22T19:11:38.279Z,18.80
2017-08-22T19:14:07.231Z,18.60
2017-08-22T19:16:36.180Z,18.50
2017-08-22T19:19:05.136Z,18.50
2017-08-22T19:21:34.091Z,18.40
2017-08-22T19:24:03.048Z,18.30
2017-08-22T19:26:31.993Z,18.30
2017-08-22T19:29:00.967Z,18.20
2017-08-22T19:31:29.915Z,18.20
2017-08-22T19:33:58.903Z,18.10
2017-08-22T19:36:27.854Z,18.00
2017-08-22T19:38:56.820Z,18.10
2017-08-22T19:41:25.773Z,18.00
2017-08-22T19:43:55.357Z,18.00
2017-08-22T19:46:38.316Z,18.00
2017-08-22T19:49:07.287Z,18.00
2017-08-22T19:51:36.436Z,17.80
2017-08-22T19:54:12.061Z,17.80
2017-08-22T19:56:41.035Z,17.70
2017-08-22T19:59:10.008Z,17.70
2017-08-22T20:01:39.116Z,17.60
2017-08-22T20:04:09.438Z,17.60
2017-08-22T20:06:38.636Z,17.60
2017-08-22T20:09:08.511Z,17.50
2017-08-22T20:11:49.484Z,17.50
2017-08-22T20:14:18.421Z,17.20
2017-08-22T20:16:51.455Z,17.30
2017-08-22T20:19:23.951Z,17.30
2017-08-22T20:21:53.899Z,17.30
2017-08-22T20:24:22.928Z,17.30
2017-08-22T20:26:51.905Z,17.30
2017-08-22T20:29:20.861Z,17.20
2017-08-22T20:31:54.031Z,17.10
2017-08-22T20:34:22.983Z,17.10
2017-08-22T20:36:52.052Z,17.10
2017-08-22T20:39:21.028Z,17.00
2017-08-22T20:41:54.200Z,16.90
2017-08-22T20:44:23.148Z,16.80
2017-08-22T20:46:52.104Z,16.80
2017-08-22T20:49:21.059Z,16.80
2017-08-22T20:51:50.675Z,16.80
2017-08-22T20:54:19.608Z,16.80
2017-08-22T20:56:48.587Z,16.90
2017-08-22T20:59:18.456Z,16.80
2017-08-22T21:01:47.403Z,16.80
2017-08-22T21:04:16.372Z,16.80
2017-08-22T21:06:45.323Z,16.80
2017-08-22T21:09:15.376Z,16.80
2017-08-22T21:11:44.328Z,16.80
2017-08-22T21:14:13.287Z,16.80
2017-08-22T21:16:42.238Z,16.80
2017-08-22T21:19:11.199Z,16.70
2017-08-22T21:21:40.155Z,16.70
2017-08-22T21:24:09.171Z,16.70
2017-08-22T21:26:38.131Z,16.70
2017-08-22T21:29:07.087Z,16.70
2017-08-22T21:31:36.144Z,16.70
2017-08-22T21:34:05.102Z,16.60
2017-08-22T21:36:34.065Z,16.60
2017-08-22T21:39:04.097Z,16.50
2017-08-22T21:41:33.958Z,16.40
2017-08-22T21:44:02.920Z,16.50
2017-08-22T21:46:31.872Z,16.50
2017-08-22T21:49:00.844Z,16.50
2017-08-22T21:51:29.796Z,16.30
2017-08-22T21:53:58.764Z,16.30
2017-08-22T21:56:28.639Z,16.20
2017-08-22T21:58:57.598Z,16.20
2017-08-22T22:01:26.585Z,16.20
2017-08-22T22:03:56.032Z,16.00
2017-08-22T22:06:26.150Z,16.00
2017-08-22T22:08:55.190Z,16.00
2017-08-22T22:11:24.283Z,16.00
2017-08-22T22:13:53.223Z,16.00
2017-08-22T22:16:22.966Z,16.00
2017-08-22T22:18:51.919Z,15.90
2017-08-22T22:21:21.064Z,16.00
2017-08-22T22:23:50.108Z,15.90
2017-08-22T22:26:19.075Z,15.90
2017-08-22T22:28:48.234Z,15.80
2017-08-22T22:31:17.339Z,15.90
2017-08-22T22:33:46.374Z,15.90
2017-08-22T22:36:15.527Z,15.80
2017-08-22T22:38:44.501Z,15.70
2017-08-22T22:41:14.419Z,15.70
2017-08-22T22:43:43.419Z,15.80
2017-08-22T22:46:12.497Z,15.80
2017-08-22T22:48:41.447Z,15.70
2017-08-22T22:51:10.422Z,15.70
2017-08-22T22:53:39.367Z,15.60
2017-08-22T22:56:08.383Z,15.70
2017-08-22T22:58:37.347Z,15.60
2017-08-22T23:01:06.300Z,15.50
2017-08-22T23:03:35.336Z,15.50
2017-08-22T23:06:04.355Z,15.50
2017-08-22T23:08:33.335Z,15.40
2017-08-22T23:11:02.282Z,15.30
2017-08-22T23:13:31.251Z,15.40
2017-08-22T23:16:00.203Z,15.40
2017-08-22T23:18:29.155Z,15.40
2017-08-22T23:20:58.115Z,15.40
2017-08-22T23:23:28.592Z,15.40
2017-08-22T23:25:57.801Z,15.50
2017-08-22T23:28:26.835Z,15.50
2017-08-22T23:30:56.451Z,15.40
2017-08-22T23:33:25.600Z,15.40
2017-08-22T23:35:54.658Z,15.30
2017-08-22T23:38:23.606Z,15.30
2017-08-22T23:40:52.790Z,15.30
2017-08-22T23:43:21.736Z,15.30
2017-08-22T23:45:50.703Z,15.20
2017-08-22T23:48:19.644Z,15.20
2017-08-22T23:50:49.585Z,15.20
2017-08-22T23:53:18.727Z,15.20
2017-08-22T23:55:47.707Z,15.20
2017-08-22T23:58:16.664Z,15.10
